Terminal Aerodrome Forecast
Issued by NWS

Home | Current Version | Previous Version | Text Only | Print | Product List | Glossary On
Versions: 1 2 3 4 5 6 7 8 9 10 11 12 13 14 15 16 17 18 19 20 21 22 23 24 25
000
FTUS43 KICT 231000 AAC
TAFRSL
TAF AMD
KRSL 231001Z 2310/2406 20006KT 1SM BR SCT002
      TEMPO 2311/2315 1/2SM FG BKN002
     FM231700 VRB05KT P6SM OVC015=

USA.gov is the U.S. government's official web portal to all federal, state and local government web resources and services.